Time;durP1;ratioP1;P1;durP2;ratioP2;P2;SDS_P1;SDS_P2;PMS_P1;PMS_P2;Temp;Humidity;BMP_temperature;BMP_pressure;BME280_temperature;BME280_humidity;BME280_pressure;Samples;Min_cycle;Max_cycle;Signal;HPM_P1;HPM_P2
2023/05/15 00:02:14;;;;;;;10.52;5.45;;;;;;;13.61;67.67;100372.84;4975485;28;20054;-55
2023/05/15 00:04:40;;;;;;;9.30;4.80;;;;;;;13.57;68.53;100373.75;4990595;28;20058;-57
2023/05/15 00:07:07;;;;;;;8.68;4.60;;;;;;;13.55;68.39;100372.03;4984067;28;20705;-53
2023/05/15 00:09:34;;;;;;;11.43;4.85;;;;;;;13.54;68.16;100372.94;4983366;28;20095;-54
2023/05/15 00:12:02;;;;;;;8.95;4.30;;;;;;;13.52;68.49;100378.16;4987154;28;20050;-58
2023/05/15 00:14:28;;;;;;;8.13;4.32;;;;;;;13.51;68.33;100375.56;4987865;28;20382;-54
2023/05/15 00:16:55;;;;;;;7.43;3.45;;;;;;;13.47;69.06;100369.47;4990367;28;20044;-51
2023/05/15 00:19:22;;;;;;;4.95;2.20;;;;;;;13.38;68.63;100365.25;4997265;28;20473;-56
2023/05/15 00:21:48;;;;;;;5.07;2.83;;;;;;;13.33;68.32;100362.66;4984305;28;20082;-54
2023/05/15 00:24:15;;;;;;;7.20;2.55;;;;;;;13.25;69.25;100364.47;4980940;28;20138;-55
2023/05/15 00:26:42;;;;;;;5.68;2.35;;;;;;;13.22;68.47;100360.19;4986677;28;20084;-56
2023/05/15 00:29:08;;;;;;;6.20;1.90;;;;;;;13.19;68.37;100369.72;4980016;28;20125;-52
2023/05/15 00:31:35;;;;;;;3.30;1.67;;;;;;;13.10;68.34;100360.25;4968531;28;20486;-49
2023/05/15 00:34:02;;;;;;;2.38;1.30;;;;;;;12.99;67.64;100362.94;4997326;28;20208;-56
2023/05/15 00:36:28;;;;;;;2.38;1.20;;;;;;;12.90;67.98;100363.03;4990710;28;20137;-53
2023/05/15 00:38:55;;;;;;;5.82;1.42;;;;;;;12.85;67.50;100356.13;4982031;28;20046;-52
2023/05/15 00:41:22;;;;;;;5.45;1.40;;;;;;;12.76;66.85;100366.56;4981111;28;20089;-51
2023/05/15 00:43:51;;;;;;;3.67;1.38;;;;;;;12.66;66.56;100364.94;4984925;28;20604;-52
2023/05/15 00:46:20;;;;;;;5.53;1.40;;;;;;;12.65;66.39;100368.38;4988894;28;20053;-57
2023/05/15 00:48:49;;;;;;;3.97;1.10;;;;;;;12.57;66.70;100365.84;4990230;28;20113;-52
2023/05/15 00:51:16;;;;;;;4.78;1.10;;;;;;;12.50;66.94;100362.38;4988851;28;20275;-53
2023/05/15 00:53:43;;;;;;;6.70;1.92;;;;;;;12.45;66.33;100364.16;4991181;28;20784;-51
2023/05/15 00:56:11;;;;;;;6.15;1.42;;;;;;;12.45;65.95;100377.16;4977488;28;20271;-52
2023/05/15 00:58:38;;;;;;;3.83;1.00;;;;;;;12.45;66.00;100377.16;4986394;28;20045;-52
2023/05/15 01:01:05;;;;;;;3.92;1.20;;;;;;;12.40;66.74;100373.72;4989410;28;20086;-53
2023/05/15 01:03:34;;;;;;;4.95;1.23;;;;;;;12.40;65.72;100373.72;4979947;28;20149;-51
2023/05/15 01:06:01;;;;;;;6.38;1.77;;;;;;;12.37;66.38;100384.13;4983379;28;20050;-52
2023/05/15 01:11:07;;;;;;;5.22;1.52;;;;;;;12.32;66.13;100392.81;5048146;28;20403;-52
2023/05/15 01:13:33;;;;;;;5.13;1.40;;;;;;;12.32;66.25;100387.59;4997876;28;20077;-56
2023/05/15 01:16:00;;;;;;;2.92;0.85;;;;;;;12.24;67.05;100388.50;4996281;28;20073;-53
2023/05/15 01:18:31;;;;;;;7.07;1.00;;;;;;;12.25;67.54;100380.72;5001497;28;20137;-54
2023/05/15 01:24:02;;;;;;;3.92;0.93;;;;;;;12.17;66.49;100387.69;5099494;27;20402;-50
2023/05/15 01:29:19;;;;;;;4.28;1.25;;;;;;;12.17;66.30;100401.53;5045087;28;20398;-52
2023/05/15 01:31:52;;;;;;;6.28;1.45;;;;;;;12.18;66.12;100404.97;5019825;28;20057;-50
2023/05/15 01:34:26;;;;;;;7.55;1.35;;;;;;;12.20;65.90;100403.25;5020601;28;20060;-52
2023/05/15 01:36:59;;;;;;;5.57;2.75;;;;;;;12.21;66.83;100399.78;5018162;28;20468;-53
2023/05/15 01:39:27;;;;;;;6.93;1.73;;;;;;;12.21;65.86;100404.97;5013773;28;20128;-57
2023/05/15 01:42:01;;;;;;;3.70;1.25;;;;;;;12.21;65.78;100404.97;5016687;28;20080;-57
2023/05/15 01:44:32;;;;;;;5.85;1.35;;;;;;;12.20;66.11;100403.25;5015383;28;20460;-47
2023/05/15 01:47:03;;;;;;;4.45;1.50;;;;;;;12.19;66.83;100409.28;5021503;28;20128;-52
2023/05/15 01:49:32;;;;;;;5.03;1.70;;;;;;;12.14;67.09;100404.13;5020753;28;20119;-49
2023/05/15 01:52:07;;;;;;;5.60;1.35;;;;;;;12.11;66.56;100408.47;5019208;28;20076;-49
2023/05/15 01:54:35;;;;;;;7.82;1.85;;;;;;;12.12;66.42;100407.63;5019565;28;20448;-53
2023/05/15 01:57:02;;;;;;;6.10;1.15;;;;;;;12.11;66.17;100418.84;5017911;28;20049;-50
2023/05/15 01:59:30;;;;;;;6.70;1.30;;;;;;;12.11;66.85;100403.25;5020109;28;20099;-51
2023/05/15 02:01:57;;;;;;;4.95;1.35;;;;;;;12.07;66.59;100408.50;5018738;28;20129;-53
2023/05/15 02:04:25;;;;;;;5.22;1.20;;;;;;;12.06;66.69;100411.94;5018724;28;20052;-56
2023/05/15 02:06:52;;;;;;;3.33;1.40;;;;;;;12.02;65.71;100405.00;5017028;28;20593;-53
2023/05/15 02:09:20;;;;;;;7.32;1.25;;;;;;;11.98;67.17;100408.47;5017435;28;20064;-55
2023/05/15 02:11:47;;;;;;;3.42;1.05;;;;;;;11.94;66.88;100417.13;5015853;28;20056;-52
2023/05/15 02:14:15;;;;;;;3.65;0.80;;;;;;;11.90;67.00;100416.28;5018484;28;20088;-53
2023/05/15 02:16:42;;;;;;;8.48;1.65;;;;;;;11.86;66.85;100413.69;5015584;28;20468;-53
2023/05/15 02:19:09;;;;;;;6.97;1.38;;;;;;;11.79;66.39;100418.03;5021394;28;20065;-56
2023/05/15 02:21:36;;;;;;;3.60;1.25;;;;;;;11.74;66.32;100420.63;5017928;28;20041;-53
2023/05/15 02:24:02;;;;;;;8.20;2.22;;;;;;;11.68;66.08;100424.09;5018780;28;20137;-55
2023/05/15 02:26:42;;;;;;;5.80;1.20;;;;;;;11.61;66.20;100419.78;5013788;28;20136;-51
2023/05/15 02:32:13;;;;;;;4.57;1.92;;;;;;;11.49;67.02;100420.69;5050786;27;20791;-53
2023/05/15 02:37:31;;;;;;;3.78;1.10;;;;;;;11.46;66.42;100419.78;5057506;28;20392;-54
2023/05/15 02:39:59;;;;;;;4.10;0.80;;;;;;;11.43;66.68;100425.84;5019077;28;20326;-54
2023/05/15 02:42:30;;;;;;;5.72;1.30;;;;;;;11.40;66.23;100421.53;5028274;28;20054;-55
2023/05/15 02:44:56;;;;;;;;;;;;;;;11.19;67.79;100430.16;5015653;28;20119;-52
2023/05/15 02:47:24;;;;;;;3.97;1.30;;;;;;;11.29;66.88;100424.09;5017683;28;19944;-54
2023/05/15 02:49:51;;;;;;;4.53;1.10;;;;;;;11.30;67.40;100425.84;5018131;28;20580;-51
2023/05/15 02:52:17;;;;;;;4.22;0.82;;;;;;;11.28;66.55;100427.56;5019023;28;20123;-49
2023/05/15 02:54:44;;;;;;;2.13;0.73;;;;;;;11.28;66.40;100432.75;5015398;28;20115;-57
2023/05/15 02:57:11;;;;;;;5.82;1.20;;;;;;;11.25;66.84;100435.34;5015129;28;20108;-55
2023/05/15 02:59:37;;;;;;;4.10;0.60;;;;;;;11.23;67.08;100434.50;5014027;28;20104;-52
2023/05/15 03:02:04;;;;;;;6.45;2.25;;;;;;;11.22;67.16;100447.44;5016920;28;20517;-54
2023/05/15 03:04:31;;;;;;;6.45;2.83;;;;;;;11.21;66.90;100443.13;5016769;28;20131;-52
2023/05/15 03:06:58;;;;;;;6.43;2.58;;;;;;;11.16;67.24;100445.72;5017512;28;20068;-55
2023/05/15 03:09:24;;;;;;;4.45;1.98;;;;;;;11.14;66.73;100455.22;5013194;28;20132;-52
2023/05/15 03:11:51;;;;;;;5.43;1.00;;;;;;;11.13;66.58;100448.31;5016251;28;20069;-54
2023/05/15 03:14:17;;;;;;;6.80;1.33;;;;;;;11.10;66.62;100453.47;5013852;28;20155;-53
2023/05/15 03:16:44;;;;;;;6.50;0.88;;;;;;;11.05;66.62;100454.34;5014226;28;20081;-50
2023/05/15 03:19:11;;;;;;;4.00;1.50;;;;;;;11.02;67.22;100451.72;5019287;28;20050;-50
2023/05/15 03:21:37;;;;;;;4.63;0.75;;;;;;;10.96;66.88;100456.91;5017187;28;20046;-57
2023/05/15 03:24:04;;;;;;;3.53;0.70;;;;;;;10.90;67.69;100451.72;5016832;28;20066;-52
2023/05/15 03:26:31;;;;;;;5.20;1.10;;;;;;;10.85;66.65;100454.31;5015976;28;20092;-53
2023/05/15 03:28:57;;;;;;;3.42;1.15;;;;;;;10.80;66.96;100456.88;5014216;28;20123;-52
2023/05/15 03:31:24;;;;;;;5.70;2.17;;;;;;;10.74;67.55;100458.59;5012132;28;20085;-50
2023/05/15 03:33:51;;;;;;;7.50;0.98;;;;;;;10.70;67.63;100460.28;5020008;28;20132;-53
2023/05/15 03:36:17;;;;;;;7.90;2.78;;;;;;;10.64;67.62;100457.69;5018194;28;20081;-53
2023/05/15 03:38:44;;;;;;;5.80;1.15;;;;;;;10.60;67.32;100455.97;5011053;28;20149;-57
2023/05/15 03:41:10;;;;;;;7.05;2.70;;;;;;;10.54;67.84;100455.06;5013627;28;20099;-51
2023/05/15 03:43:37;;;;;;;6.97;0.82;;;;;;;10.51;67.22;100455.03;5019897;28;20104;-52
2023/05/15 03:46:04;;;;;;;6.63;0.93;;;;;;;10.47;68.07;100453.28;5015309;28;20762;-54
2023/05/15 03:48:31;;;;;;;6.68;1.00;;;;;;;10.43;67.03;100454.13;5002313;28;20044;-50
2023/05/15 03:50:57;;;;;;;3.63;0.85;;;;;;;10.41;67.72;100453.25;4999851;28;20054;-53
2023/05/15 03:53:24;;;;;;;5.80;1.02;;;;;;;10.37;68.12;100451.50;5003824;28;20046;-52
2023/05/15 03:55:51;;;;;;;4.13;1.83;;;;;;;10.31;68.35;100456.66;4999595;28;20057;-53
2023/05/15 03:58:17;;;;;;;4.38;1.00;;;;;;;10.27;67.58;100455.78;5007449;28;20085;-50
2023/05/15 04:00:44;;;;;;;5.50;1.08;;;;;;;10.20;68.00;100465.22;5003692;28;20076;-54
2023/05/15 04:03:10;;;;;;;3.08;0.90;;;;;;;10.16;67.64;100463.47;5005713;28;20664;-56
2023/05/15 04:05:37;;;;;;;6.43;1.40;;;;;;;10.13;67.64;100466.03;5007671;28;20046;-56
2023/05/15 04:08:04;;;;;;;7.82;2.90;;;;;;;10.08;68.07;100465.16;5003336;28;20092;-51
2023/05/15 04:10:32;;;;;;;5.03;0.88;;;;;;;10.02;67.39;100471.16;5001576;28;20116;-52
2023/05/15 04:12:59;;;;;;;5.78;1.23;;;;;;;9.98;67.83;100475.47;5008916;28;20482;-54
2023/05/15 04:15:27;;;;;;;7.75;1.38;;;;;;;9.95;67.55;100480.59;5007597;28;20501;-53
2023/05/15 04:17:54;;;;;;;3.00;1.00;;;;;;;9.93;67.89;100482.31;5008584;28;20624;-55
2023/05/15 04:20:23;;;;;;;4.72;0.90;;;;;;;9.90;68.17;100483.16;5001691;28;20054;-55
2023/05/15 04:22:51;;;;;;;4.28;2.60;;;;;;;9.87;67.85;100487.47;5005583;28;20129;-49
2023/05/15 04:25:19;;;;;;;6.35;1.35;;;;;;;9.83;68.13;100498.63;5003347;28;20080;-54
2023/05/15 04:27:46;;;;;;;4.85;1.00;;;;;;;9.81;68.22;100492.56;5003447;28;20045;-52
2023/05/15 04:30:12;;;;;;;6.20;1.13;;;;;;;9.79;68.07;100489.13;5003843;28;20119;-53
2023/05/15 04:32:39;;;;;;;6.35;1.58;;;;;;;9.79;68.27;100489.97;5006539;28;20045;-51
2023/05/15 04:35:09;;;;;;;6.13;1.00;;;;;;;9.77;67.97;100487.38;5006323;28;20152;-51
2023/05/15 04:37:37;;;;;;;3.15;0.98;;;;;;;9.77;68.05;100492.53;5006083;28;20060;-50
2023/05/15 04:40:05;;;;;;;5.90;1.00;;;;;;;9.76;68.07;100496.00;5005326;28;20111;-48
2023/05/15 04:42:33;;;;;;;5.07;0.80;;;;;;;9.75;67.84;100498.56;5001813;28;20092;-50
2023/05/15 04:45:01;;;;;;;6.45;1.20;;;;;;;9.72;67.91;100494.25;5003551;28;20097;-57
2023/05/15 04:47:27;;;;;;;2.75;0.70;;;;;;;9.69;68.70;100496.78;4997818;28;20049;-49
2023/05/15 04:49:54;;;;;;;6.97;2.20;;;;;;;9.67;68.64;100489.88;5003966;28;20495;-50
2023/05/15 04:52:21;;;;;;;8.23;1.25;;;;;;;9.64;68.43;100495.91;5004145;28;20116;-52
2023/05/15 04:54:49;;;;;;;2.92;1.05;;;;;;;9.62;68.47;100495.00;5002215;28;20120;-54
2023/05/15 04:57:17;;;;;;;5.93;0.63;;;;;;;9.61;68.74;100501.03;4995899;28;20112;-50
2023/05/15 04:59:44;;;;;;;3.70;1.15;;;;;;;9.58;68.30;100503.59;5001721;28;20054;-50
2023/05/15 05:02:10;;;;;;;5.47;0.77;;;;;;;9.61;68.43;100506.22;5003458;28;20076;-52
2023/05/15 05:04:37;;;;;;;3.35;0.95;;;;;;;9.61;67.85;100508.81;5005739;28;20100;-51
2023/05/15 05:07:04;;;;;;;5.55;0.70;;;;;;;9.60;68.11;100509.66;4997020;28;20133;-48
2023/05/15 05:09:31;;;;;;;8.55;2.88;;;;;;;9.59;68.48;100507.94;4999794;28;20706;-49
2023/05/15 05:11:58;;;;;;;2.15;1.98;;;;;;;9.54;68.76;100509.59;5000760;28;20621;-54
2023/05/15 05:14:25;;;;;;;4.43;0.70;;;;;;;9.58;68.01;100516.53;4998557;28;20461;-48
2023/05/15 05:16:52;;;;;;;5.07;0.82;;;;;;;9.59;68.71;100520.88;5000184;28;20058;-49
2023/05/15 05:19:18;;;;;;;6.43;2.67;;;;;;;9.61;67.82;100516.56;4994665;28;20050;-50
2023/05/15 05:21:45;;;;;;;5.53;2.08;;;;;;;9.65;68.19;100518.31;5002735;28;20053;-51
2023/05/15 05:24:11;;;;;;;6.15;0.88;;;;;;;9.62;67.99;100524.34;5002018;28;20070;-50
2023/05/15 05:26:38;;;;;;;3.75;1.88;;;;;;;9.63;68.24;100528.66;4998130;28;20042;-50
2023/05/15 05:29:05;;;;;;;4.20;1.15;;;;;;;9.66;68.12;100522.63;4999522;28;20453;-53
2023/05/15 05:31:31;;;;;;;7.03;2.55;;;;;;;9.67;68.42;100524.38;5001578;28;20510;-54
2023/05/15 05:33:58;;;;;;;4.07;2.00;;;;;;;9.72;68.20;100527.88;4997835;28;20053;-50
2023/05/15 05:36:25;;;;;;;6.75;2.42;;;;;;;9.74;67.81;100528.75;5002496;28;20074;-53
2023/05/15 05:38:51;;;;;;;5.47;1.40;;;;;;;9.80;68.03;100532.25;5001945;28;20046;-53
2023/05/15 05:41:18;;;;;;;8.10;2.00;;;;;;;9.82;67.91;100525.34;4995862;28;20070;-53
2023/05/15 05:43:45;;;;;;;3.15;0.85;;;;;;;9.83;67.64;100527.09;4998276;28;20050;-51
2023/05/15 05:46:11;;;;;;;2.47;0.57;;;;;;;9.89;67.66;100527.13;5000390;28;20544;-53
2023/05/15 05:48:38;;;;;;;6.90;1.95;;;;;;;9.92;67.40;100532.34;5004025;28;21062;-51
2023/05/15 05:51:04;;;;;;;5.38;1.77;;;;;;;9.91;66.90;100538.38;5000291;28;20077;-50
2023/05/15 05:53:31;;;;;;;5.88;1.98;;;;;;;9.97;66.89;100540.13;5001259;28;20128;-49
2023/05/15 05:55:57;;;;;;;3.97;0.95;;;;;;;9.97;66.54;100551.34;4994631;28;20133;-54
2023/05/15 05:58:24;;;;;;;2.35;0.50;;;;;;;10.02;66.91;100549.66;4996267;28;20065;-55
2023/05/15 06:00:52;;;;;;;5.85;2.33;;;;;;;10.09;66.41;100555.75;4991665;28;20542;-55
2023/05/15 06:03:19;;;;;;;5.93;1.90;;;;;;;10.11;66.71;100550.59;4993726;28;20131;-52
2023/05/15 06:05:47;;;;;;;7.15;0.90;;;;;;;10.19;65.90;100551.50;4996477;28;20111;-50
2023/05/15 06:08:14;;;;;;;5.13;0.88;;;;;;;10.26;65.90;100553.28;4996615;28;20161;-54
2023/05/15 06:10:41;;;;;;;3.30;1.85;;;;;;;10.33;66.38;100558.50;4994259;28;20489;-51
2023/05/15 06:13:07;;;;;;;4.25;1.75;;;;;;;10.39;65.55;100563.72;5000114;28;20058;-55
2023/05/15 06:15:34;;;;;;;5.32;2.25;;;;;;;10.51;65.95;100553.47;4999684;28;20054;-53
2023/05/15 06:18:01;;;;;;;5.50;2.08;;;;;;;10.61;65.31;100559.56;4994924;28;20077;-51
2023/05/15 06:20:28;;;;;;;4.82;2.60;;;;;;;10.66;64.38;100562.19;4995942;28;20042;-52
2023/05/15 06:22:54;;;;;;;6.35;1.67;;;;;;;10.72;64.93;100567.41;4997493;28;20467;-53
2023/05/15 06:25:21;;;;;;;2.63;0.73;;;;;;;10.77;64.50;100570.88;4998780;28;20050;-50
2023/05/15 06:27:48;;;;;;;3.17;2.20;;;;;;;10.85;64.89;100565.75;5003934;28;20100;-51
2023/05/15 06:30:14;;;;;;;3.60;0.57;;;;;;;10.92;64.71;100569.22;4994546;28;20086;-52
2023/05/15 06:32:41;;;;;;;3.85;2.25;;;;;;;11.01;64.20;100569.25;5000115;28;20041;-51
2023/05/15 06:35:10;;;;;;;8.43;2.20;;;;;;;11.00;63.57;100571.81;4996856;28;20054;-53
2023/05/15 06:37:37;;;;;;;4.63;2.55;;;;;;;11.10;63.07;100575.31;4998978;28;20077;-51
2023/05/15 06:40:05;;;;;;;5.82;3.58;;;;;;;11.21;62.86;100581.41;4990241;28;20136;-52
2023/05/15 06:42:32;;;;;;;5.82;0.93;;;;;;;11.34;62.73;100566.75;4998115;28;20055;-49
2023/05/15 06:44:59;;;;;;;4.10;0.95;;;;;;;11.64;63.36;100569.41;4993602;28;20046;-52
2023/05/15 06:47:25;;;;;;;7.68;3.38;;;;;;;11.93;62.44;100565.97;4996482;28;20524;-52
2023/05/15 06:49:54;;;;;;;7.15;1.17;;;;;;;12.07;61.63;100564.28;5001502;28;20560;-53
2023/05/15 06:52:20;;;;;;;4.70;0.80;;;;;;;12.28;62.01;100575.50;4992282;28;20140;-51
2023/05/15 06:54:47;;;;;;;3.28;0.85;;;;;;;12.47;61.74;100572.88;4991665;28;20168;-49
2023/05/15 06:57:14;;;;;;;3.83;1.00;;;;;;;12.62;61.23;100578.88;4994700;28;20104;-52
2023/05/15 06:59:41;;;;;;;7.38;0.80;;;;;;;12.65;60.04;100577.16;4994853;28;20049;-53
2023/05/15 07:02:07;;;;;;;5.03;0.85;;;;;;;12.75;60.15;100582.31;4994444;28;20050;-51
2023/05/15 07:04:34;;;;;;;3.40;0.75;;;;;;;12.94;60.09;100577.94;4999728;28;20045;-50
2023/05/15 07:07:01;;;;;;;3.80;0.60;;;;;;;13.11;59.04;100580.44;4998424;28;20109;-52
2023/05/15 07:09:28;;;;;;;7.00;2.72;;;;;;;13.34;59.56;100587.28;4991822;28;20053;-53
2023/05/15 07:11:55;;;;;;;10.68;1.40;;;;;;;13.53;57.85;100585.44;4994076;28;20102;-56
2023/05/15 07:14:22;;;;;;;2.38;0.85;;;;;;;13.70;57.39;100584.47;4994410;28;20100;-50
2023/05/15 07:16:49;;;;;;;2.80;0.80;;;;;;;13.83;57.35;100580.91;4996065;28;20073;-54
2023/05/15 07:19:17;;;;;;;3.08;1.08;;;;;;;13.92;56.76;100590.41;4995681;28;20133;-54
2023/05/15 07:21:46;;;;;;;4.15;0.55;;;;;;;14.04;55.92;100592.00;4994525;28;20561;-55
2023/05/15 07:24:13;;;;;;;1.70;0.52;;;;;;;14.19;55.78;100587.56;4997782;28;20053;-52
2023/05/15 07:26:39;;;;;;;5.55;0.75;;;;;;;14.21;54.53;100585.78;4998131;28;20137;-53
2023/05/15 07:29:23;;;;;;;4.65;0.63;;;;;;;14.36;54.57;100590.84;5001727;28;20045;-50
2023/05/15 07:31:50;;;;;;;3.75;0.60;;;;;;;14.46;53.70;100588.16;5003833;28;20114;-48
2023/05/15 07:34:17;;;;;;;5.22;0.90;;;;;;;14.67;54.01;100588.81;5006865;28;20050;-50
2023/05/15 07:36:43;;;;;;;1.80;0.70;;;;;;;14.92;53.33;100588.56;5008144;28;20046;-55
2023/05/15 07:39:10;;;;;;;2.95;1.55;;;;;;;15.06;51.91;100593.63;5007654;28;20434;-48
2023/05/15 07:41:37;;;;;;;1.38;0.40;;;;;;;15.10;51.49;100603.97;5008165;28;20058;-55
2023/05/15 07:44:03;;;;;;;2.03;0.98;;;;;;;15.27;51.63;100600.31;5000258;28;20152;-52
2023/05/15 07:46:30;;;;;;;1.42;0.40;;;;;;;15.52;51.18;100599.94;5003624;28;20563;-52
2023/05/15 07:48:56;;;;;;;2.80;0.82;;;;;;;15.58;49.66;100599.88;5003460;28;20100;-49
2023/05/15 07:51:23;;;;;;;1.33;0.63;;;;;;;15.51;48.80;100603.44;5006512;28;20050;-50
2023/05/15 07:53:50;;;;;;;2.40;0.60;;;;;;;15.29;47.75;100604.63;5000331;28;20050;-52
2023/05/15 07:56:16;;;;;;;1.30;1.20;;;;;;;15.07;47.83;100601.44;5004489;28;20262;-54
2023/05/15 07:58:43;;;;;;;2.75;0.40;;;;;;;14.96;48.46;100611.13;4999747;28;20077;-52
2023/05/15 08:01:10;;;;;;;0.88;0.43;;;;;;;14.77;48.55;100600.91;5007273;28;20116;-52
2023/05/15 08:03:36;;;;;;;3.20;1.10;;;;;;;14.77;49.32;100608.72;5003376;28;20049;-53
2023/05/15 08:06:03;;;;;;;2.17;0.63;;;;;;;14.79;49.31;100614.78;4990857;28;20046;-52
2023/05/15 08:08:30;;;;;;;3.03;0.80;;;;;;;14.84;49.23;100613.00;5001892;28;20169;-52
2023/05/15 08:10:56;;;;;;;4.53;1.08;;;;;;;14.88;49.14;100619.91;4999369;28;20081;-53
2023/05/15 08:13:23;;;;;;;6.03;0.98;;;;;;;14.86;49.46;100611.22;5004396;28;20092;-49
2023/05/15 08:15:50;;;;;;;3.10;0.65;;;;;;;14.81;48.76;100618.25;5004628;28;20061;-52
2023/05/15 08:18:16;;;;;;;1.77;0.80;;;;;;;14.72;48.92;100618.28;4998222;28;20493;-48
2023/05/15 08:20:43;;;;;;;2.20;0.60;;;;;;;14.75;49.34;100628.69;5002189;28;20050;-52
2023/05/15 08:23:09;;;;;;;4.32;0.75;;;;;;;14.93;49.75;100624.19;5006069;28;20046;-53
2023/05/15 08:25:38;;;;;;;1.70;0.55;;;;;;;15.02;49.12;100626.69;5005102;28;20056;-51
2023/05/15 08:28:05;;;;;;;2.00;0.80;;;;;;;15.18;49.45;100627.38;5003664;28;20553;-48
2023/05/15 08:30:31;;;;;;;3.72;0.80;;;;;;;15.35;49.23;100629.75;5002933;28;20064;-49
2023/05/15 08:32:58;;;;;;;4.13;0.93;;;;;;;15.58;49.62;100625.97;5000696;28;20116;-52
2023/05/15 08:35:25;;;;;;;2.97;0.80;;;;;;;15.71;48.32;100628.41;5002946;28;20502;-55
2023/05/15 08:37:52;;;;;;;2.90;0.77;;;;;;;15.88;48.37;100628.16;5001695;28;20133;-52
2023/05/15 08:40:20;;;;;;;2.88;0.40;;;;;;;16.11;48.17;100625.19;5007526;28;20112;-56
2023/05/15 08:43:12;;;;;;;4.78;0.93;;;;;;;16.37;48.06;100621.28;5000007;28;20066;-55
2023/05/15 08:45:40;;;;;;;3.33;0.50;;;;;;;16.56;46.34;100613.09;5001619;28;20096;-53
2023/05/15 08:48:12;;;;;;;4.18;0.70;;;;;;;16.67;46.26;100613.75;4997980;28;20157;-51
2023/05/15 08:50:40;;;;;;;2.90;0.73;;;;;;;16.72;45.65;100621.50;4999172;28;20060;-52
2023/05/15 08:53:07;;;;;;;11.52;1.25;;;;;;;16.79;45.41;100606.56;5001460;28;20585;-56
2023/05/15 08:55:34;;;;;;;2.47;1.95;;;;;;;16.92;45.01;100608.03;5005768;28;20080;-47
2023/05/15 08:58:01;;;;;;;3.80;1.13;;;;;;;17.03;44.60;100610.44;5001914;28;20073;-55
2023/05/15 09:00:28;;;;;;;3.35;0.88;;;;;;;17.16;44.14;100611.06;4998983;28;20249;-51
2023/05/15 09:02:59;;;;;;;3.75;2.53;;;;;;;17.31;44.62;100604.66;5004030;28;20524;-59
2023/05/15 09:05:28;;;;;;;1.50;0.65;;;;;;;17.45;43.82;100606.97;5007321;28;20053;-52
2023/05/15 09:07:57;;;;;;;1.20;0.38;;;;;;;17.38;42.99;100600.13;5001501;28;20053;-54
2023/05/15 09:10:24;;;;;;;2.03;0.57;;;;;;;17.45;42.89;100600.84;4997942;28;20149;-55
2023/05/15 09:12:52;;;;;;;1.55;0.40;;;;;;;17.44;42.86;100610.47;5000741;28;20053;-52
2023/05/15 09:15:22;;;;;;;1.35;0.75;;;;;;;17.26;40.73;100610.88;4997556;28;20081;-55
2023/05/15 09:17:49;;;;;;;;;;;;;;;17.17;40.16;100612.81;4997296;28;20123;-55
2023/05/15 09:23:02;;;;;;;4.20;0.70;;;;;;;17.46;41.28;100608.66;5052081;28;20393;-48
2023/05/15 09:28:24;;;;;;;5.63;1.95;;;;;;;17.68;41.43;100607.31;5079681;28;20383;-46
2023/05/15 09:31:00;;;;;;;3.15;2.03;;;;;;;17.78;41.47;100613.19;5041209;28;20106;-45
2023/05/15 09:33:29;;;;;;;3.35;2.17;;;;;;;17.80;41.92;100621.91;5042442;28;20051;-46
2023/05/15 09:35:55;;;;;;;3.88;1.80;;;;;;;17.89;41.82;100621.66;5047028;28;20076;-47
2023/05/15 09:38:22;;;;;;;2.90;1.88;;;;;;;17.92;42.01;100612.84;5043367;28;20884;-50
2023/05/15 09:40:49;;;;;;;3.15;2.03;;;;;;;17.73;42.01;100627.25;5039416;28;20080;-47
2023/05/15 09:43:15;;;;;;;5.60;2.33;;;;;;;17.82;41.70;100625.31;5032708;28;20558;-49
2023/05/15 09:45:47;;;;;;;5.10;2.17;;;;;;;17.91;40.26;100622.50;5045362;28;20133;-50
2023/05/15 09:48:13;;;;;;;2.65;2.22;;;;;;;17.99;40.49;100622.28;5037320;28;20175;-51
2023/05/15 09:50:41;;;;;;;3.20;2.05;;;;;;;18.05;40.80;100622.16;5039698;28;20145;-48
2023/05/15 09:53:10;;;;;;;4.43;3.03;;;;;;;18.03;40.33;100625.72;5043169;28;20061;-46
2023/05/15 09:55:37;;;;;;;;;;;;;;;17.78;40.22;100623.69;5045232;28;20069;-49
2023/05/15 09:58:07;;;;;;;5.75;1.50;;;;;;;18.01;41.60;100619.66;5045785;28;19968;-51
2023/05/15 10:00:34;;;;;;;;;;;;;;;18.13;40.62;100619.38;5043366;28;20079;-48
2023/05/15 10:03:02;;;;;;;3.15;2.13;;;;;;;18.39;41.01;100628.31;5038253;28;19967;-50
2023/05/15 10:05:30;;;;;;;2.28;2.03;;;;;;;18.39;39.95;100636.19;5041689;28;20053;-46
2023/05/15 10:08:09;;;;;;;2.25;1.73;;;;;;;18.30;40.35;100625.97;5037451;28;20107;-48
2023/05/15 10:10:36;;;;;;;3.10;2.08;;;;;;;18.04;39.90;100630.06;5042660;28;20056;-47
2023/05/15 10:13:04;;;;;;;2.72;2.10;;;;;;;17.96;40.38;100627.59;5042846;28;20076;-47
2023/05/15 10:15:31;;;;;;;2.45;2.25;;;;;;;17.96;40.72;100623.25;5036888;28;20051;-46
2023/05/15 10:17:59;;;;;;;3.22;0.50;;;;;;;17.79;40.37;100626.25;5043959;28;20495;-48
2023/05/15 10:20:26;;;;;;;4.10;1.65;;;;;;;17.76;40.69;100630.72;5040299;28;20053;-48
2023/05/15 10:22:55;;;;;;;2.75;1.85;;;;;;;17.62;40.19;100624.03;5034957;28;20040;-45
2023/05/15 10:28:16;;;;;;;2.38;0.60;;;;;;;17.44;40.13;100618.34;5078220;27;20398;-46
2023/05/15 10:30:42;;;;;;;2.17;0.45;;;;;;;17.53;40.11;100625.09;5002105;27;20042;-49
2023/05/15 10:33:11;;;;;;;2.55;0.60;;;;;;;17.53;40.36;100624.25;5033700;28;20058;-48
2023/05/15 10:35:39;;;;;;;1.40;0.60;;;;;;;17.66;40.09;100625.69;4993780;28;20139;-48
2023/05/15 10:38:06;;;;;;;1.33;0.45;;;;;;;17.79;41.25;100626.25;5002954;28;20141;-45
2023/05/15 10:40:36;;;;;;;3.20;0.50;;;;;;;17.96;40.38;100620.63;5009412;28;20108;-48
2023/05/15 10:43:04;;;;;;;2.70;0.45;;;;;;;18.10;40.65;100619.44;5006940;28;20661;-47
2023/05/15 10:45:33;;;;;;;2.58;0.50;;;;;;;18.10;39.62;100624.69;5015926;28;20046;-45
2023/05/15 10:48:01;;;;;;;1.10;0.75;;;;;;;17.94;39.34;100625.03;5015643;28;20046;-48
2023/05/15 10:50:28;;;;;;;1.55;0.50;;;;;;;17.96;39.41;100618.00;5025218;28;20516;-44
2023/05/15 10:52:55;;;;;;;3.80;0.70;;;;;;;18.11;39.76;100621.19;5021968;28;20486;-46
2023/05/15 10:55:22;;;;;;;2.30;0.50;;;;;;;18.17;39.23;100621.00;5028372;28;20050;-50
2023/05/15 10:57:49;;;;;;;2.75;0.50;;;;;;;18.29;39.97;100624.22;5016943;28;20535;-48
2023/05/15 11:00:31;;;;;;;2.33;0.60;;;;;;;18.40;39.54;100622.19;5017644;28;20038;-46
2023/05/15 11:02:59;;;;;;;2.38;0.50;;;;;;;18.50;39.06;100628.03;5020136;28;20064;-49
2023/05/15 11:05:27;;;;;;;1.65;0.98;;;;;;;18.65;38.79;100626.78;5020725;28;20461;-47
2023/05/15 11:10:53;;;;;;;1.00;0.50;;;;;;;18.52;37.44;100626.25;5086762;27;20395;-46
2023/05/15 11:13:20;;;;;;;3.45;1.08;;;;;;;18.44;39.27;100633.47;5045401;28;20073;-44
2023/05/15 11:15:47;;;;;;;0.85;0.38;;;;;;;18.50;38.19;100631.53;5037212;28;20041;-49
2023/05/15 11:18:15;;;;;;;3.15;0.40;;;;;;;18.44;37.84;100623.81;5042762;28;20048;-48
2023/05/15 11:23:39;;;;;;;1.88;0.40;;;;;;;18.53;36.70;100641.06;5078984;27;20384;-53
2023/05/15 11:26:06;;;;;;;4.07;0.65;;;;;;;18.59;37.58;100640.06;5038849;28;20041;-46
2023/05/15 11:28:41;;;;;;;3.20;2.05;;;;;;;18.58;36.72;100641.81;5039538;28;20613;-47
2023/05/15 11:31:08;;;;;;;0.60;0.50;;;;;;;18.57;36.70;100634.84;5033740;28;20049;-50
2023/05/15 11:33:38;;;;;;;0.68;0.40;;;;;;;18.59;36.69;100637.44;5017679;28;20057;-51
2023/05/15 11:36:05;;;;;;;5.10;0.60;;;;;;;18.36;35.87;100641.50;5020823;28;20107;-50
2023/05/15 11:38:38;;;;;;;1.48;0.40;;;;;;;18.33;36.88;100636.34;5020911;28;20170;-48
2023/05/15 11:41:17;;;;;;;3.92;0.50;;;;;;;18.20;36.89;100644.53;5022252;28;20049;-44
2023/05/15 11:43:44;;;;;;;1.70;0.70;;;;;;;18.26;37.89;100646.13;5021794;28;20111;-47
2023/05/15 11:46:12;;;;;;;0.73;0.30;;;;;;;18.34;37.25;100645.94;5036571;28;20049;-48
2023/05/15 11:48:42;;;;;;;3.20;0.85;;;;;;;18.39;37.88;100641.44;5036909;28;20591;-51
2023/05/15 11:51:26;;;;;;;0.70;0.50;;;;;;;18.42;38.34;100646.63;5021641;28;20042;-47
2023/05/15 11:53:54;;;;;;;1.42;0.50;;;;;;;18.60;38.30;100639.13;5018309;28;20045;-57
2023/05/15 11:56:24;;;;;;;3.65;0.70;;;;;;;18.65;37.28;100642.53;5016342;28;20609;-54
2023/05/15 11:58:55;;;;;;;2.05;0.50;;;;;;;18.67;37.21;100645.94;5035002;28;20072;-47